createdAt,value
2018-08-28T00:00:42.594Z,12.80
2018-08-28T00:03:10.722Z,12.70
2018-08-28T00:05:39.097Z,12.50
2018-08-28T00:08:07.886Z,12.50
2018-08-28T00:10:36.040Z,12.30
2018-08-28T00:13:04.173Z,12.20
2018-08-28T00:15:32.550Z,12.00
2018-08-28T00:18:01.383Z,11.90
2018-08-28T00:20:29.551Z,11.80
2018-08-28T00:22:57.703Z,11.70
2018-08-28T00:25:25.855Z,11.70
2018-08-28T00:27:53.987Z,11.70
2018-08-28T00:30:22.139Z,11.60
2018-08-28T00:32:50.287Z,11.50
2018-08-28T00:35:18.432Z,11.40
2018-08-28T00:37:46.561Z,11.20
2018-08-28T00:40:14.697Z,11.20
2018-08-28T00:42:43.194Z,11.10
2018-08-28T00:45:11.418Z,11.10
2018-08-28T00:47:39.819Z,11.10
2018-08-28T00:50:07.979Z,11.10
2018-08-28T00:52:36.118Z,11.20
2018-08-28T00:55:04.367Z,11.20
2018-08-28T00:57:32.494Z,11.20
2018-08-28T01:00:00.654Z,11.10
2018-08-28T01:02:29.535Z,11.10
2018-08-28T01:04:57.747Z,11.20
2018-08-28T01:07:25.862Z,11.20
2018-08-28T01:09:54.565Z,11.20
2018-08-28T01:12:22.738Z,11.10
2018-08-28T01:14:50.881Z,11.10
2018-08-28T01:17:19.022Z,10.90
2018-08-28T01:19:47.162Z,10.90
2018-08-28T01:22:15.350Z,10.70
2018-08-28T01:24:43.494Z,10.70
2018-08-28T01:27:12.460Z,10.60
2018-08-28T01:29:41.130Z,10.50
2018-08-28T01:32:09.269Z,10.40
2018-08-28T01:34:37.422Z,10.30
2018-08-28T01:37:06.129Z,10.20
2018-08-28T01:39:34.229Z,10.10
2018-08-28T01:42:02.376Z,10.10
2018-08-28T01:44:30.518Z,10.20
2018-08-28T01:46:58.669Z,10.20
2018-08-28T01:49:26.835Z,10.30
2018-08-28T01:51:54.969Z,10.30
2018-08-28T01:54:23.106Z,10.40
2018-08-28T01:56:51.275Z,10.50
2018-08-28T01:59:19.433Z,10.50
2018-08-28T02:01:47.587Z,10.50
2018-08-28T02:04:15.737Z,10.50
2018-08-28T02:06:45.106Z,10.50
2018-08-28T02:09:13.290Z,10.40
2018-08-28T02:11:41.423Z,10.40
2018-08-28T02:14:09.557Z,10.40
2018-08-28T02:16:37.705Z,10.30
2018-08-28T02:19:05.866Z,10.30
2018-08-28T02:21:34.014Z,10.20
2018-08-28T02:24:02.171Z,10.10
2018-08-28T02:26:30.317Z,10.00
2018-08-28T02:28:58.458Z,9.90
2018-08-28T02:34:17.225Z,9.80
2018-08-28T02:36:45.394Z,9.80
2018-08-28T02:39:13.718Z,9.90
2018-08-28T02:41:41.857Z,9.90
2018-08-28T02:44:10.140Z,9.90
2018-08-28T02:46:38.888Z,9.80
2018-08-28T02:49:07.314Z,9.80
2018-08-28T02:51:36.116Z,9.80
2018-08-28T02:54:04.314Z,9.90
2018-08-28T02:56:32.465Z,10.00
2018-08-28T02:59:00.613Z,10.00
2018-08-28T03:01:30.346Z,10.00
2018-08-28T03:03:58.474Z,9.90
2018-08-28T03:06:27.977Z,9.80
2018-08-28T03:08:56.122Z,9.80
2018-08-28T03:11:24.277Z,9.80
2018-08-28T03:13:52.462Z,9.70
2018-08-28T03:16:20.630Z,9.60
2018-08-28T03:18:48.776Z,9.50
2018-08-28T03:21:16.916Z,9.50
2018-08-28T03:23:45.059Z,9.50
2018-08-28T03:26:13.193Z,9.50
2018-08-28T03:28:41.326Z,9.50
2018-08-28T03:31:09.476Z,9.50
2018-08-28T03:33:37.629Z,9.50
2018-08-28T03:36:05.779Z,9.50
2018-08-28T03:38:34.694Z,9.50
2018-08-28T03:41:02.847Z,9.50
2018-08-28T03:43:31.084Z,9.60
2018-08-28T03:45:59.715Z,9.60
2018-08-28T03:48:27.837Z,9.70
2018-08-28T03:50:55.971Z,9.80
2018-08-28T03:53:24.111Z,9.80
2018-08-28T03:55:52.268Z,9.90
2018-08-28T03:58:20.427Z,10.00
2018-08-28T04:00:48.562Z,10.00
2018-08-28T04:03:16.781Z,10.00
2018-08-28T04:05:44.905Z,10.00
2018-08-28T04:08:14.087Z,10.00
2018-08-28T04:10:42.249Z,10.00
2018-08-28T04:13:10.649Z,9.90
2018-08-28T04:15:38.806Z,9.70
2018-08-28T04:18:06.944Z,9.60
2018-08-28T04:20:35.073Z,9.40
2018-08-28T04:23:03.221Z,9.30
2018-08-28T04:25:31.363Z,9.30
2018-08-28T04:28:00.087Z,9.20
2018-08-28T04:30:28.241Z,9.10
2018-08-28T04:32:56.371Z,9.10
2018-08-28T04:35:25.038Z,9.00
2018-08-28T04:37:53.364Z,9.00
2018-08-28T04:40:21.722Z,8.90
2018-08-28T04:42:50.079Z,8.90
2018-08-28T04:45:18.228Z,8.90
2018-08-28T04:47:46.363Z,9.00
2018-08-28T04:50:14.494Z,9.00
2018-08-28T04:52:42.642Z,9.10
2018-08-28T04:55:10.837Z,9.10
2018-08-28T04:57:38.982Z,9.20
2018-08-28T05:00:07.710Z,9.30
2018-08-28T05:02:37.000Z,9.30
2018-08-28T05:05:08.089Z,9.40
2018-08-28T05:07:36.232Z,9.50
2018-08-28T05:10:05.130Z,9.50
2018-08-28T05:12:33.270Z,9.40
2018-08-28T05:15:01.690Z,9.40
2018-08-28T05:17:29.832Z,9.40
2018-08-28T05:19:57.974Z,9.40
2018-08-28T05:22:26.132Z,9.50
2018-08-28T05:24:54.274Z,9.60
2018-08-28T05:27:22.538Z,9.70
2018-08-28T05:29:50.779Z,9.90
2018-08-28T05:32:19.359Z,10.00
2018-08-28T05:34:47.498Z,10.00
2018-08-28T05:37:16.065Z,10.20
2018-08-28T05:39:44.188Z,10.30
2018-08-28T05:42:12.338Z,10.40
2018-08-28T05:44:40.474Z,10.50
2018-08-28T05:47:08.741Z,10.70
2018-08-28T05:49:37.417Z,10.90
2018-08-28T05:52:11.962Z,11.10
2018-08-28T05:54:40.130Z,11.30
2018-08-28T05:57:08.398Z,11.40
2018-08-28T05:59:36.955Z,11.60
2018-08-28T06:02:05.095Z,11.80
2018-08-28T06:04:33.377Z,12.10
2018-08-28T06:07:01.613Z,12.40
2018-08-28T06:09:29.770Z,12.70
2018-08-28T06:11:57.914Z,12.90
2018-08-28T06:14:26.138Z,13.10
2018-08-28T06:16:54.282Z,13.20
2018-08-28T06:19:22.426Z,13.50
2018-08-28T06:21:50.573Z,14.20
2018-08-28T06:24:18.722Z,15.20
2018-08-28T06:26:47.190Z,16.10
2018-08-28T06:29:15.918Z,17.10
2018-08-28T06:31:44.059Z,17.90
2018-08-28T06:34:12.268Z,18.50
2018-08-28T06:36:40.427Z,18.50
2018-08-28T06:39:09.786Z,18.80
2018-08-28T06:41:38.115Z,18.80
2018-08-28T06:44:09.911Z,19.10
2018-08-28T06:46:38.175Z,19.20
2018-08-28T06:49:06.326Z,19.50
2018-08-28T06:51:34.478Z,19.70
2018-08-28T06:54:02.642Z,20.10
2018-08-28T06:56:30.777Z,20.30
2018-08-28T06:58:58.930Z,20.30
2018-08-28T07:01:27.089Z,20.90
2018-08-28T07:03:55.238Z,21.50
2018-08-28T07:06:23.386Z,22.30
2018-08-28T07:08:51.552Z,22.50
2018-08-28T07:11:20.885Z,22.70
2018-08-28T07:13:49.026Z,22.50
2018-08-28T07:16:17.216Z,22.20
2018-08-28T07:18:45.529Z,22.20
2018-08-28T07:21:13.628Z,22.60
2018-08-28T07:23:41.747Z,23.00
2018-08-28T07:26:09.970Z,23.40
2018-08-28T07:28:38.058Z,23.80
2018-08-28T07:31:06.198Z,24.20
2018-08-28T07:33:34.411Z,24.70
2018-08-28T07:36:02.930Z,24.90
2018-08-28T07:38:31.262Z,25.00
2018-08-28T07:40:59.434Z,25.20
2018-08-28T07:43:28.319Z,25.10
2018-08-28T07:45:56.546Z,25.10
2018-08-28T07:48:24.780Z,25.50
2018-08-28T07:50:52.900Z,25.20
2018-08-28T07:53:21.066Z,25.20
2018-08-28T07:55:49.222Z,25.50
2018-08-28T07:58:17.368Z,25.70
2018-08-28T08:00:45.735Z,26.00
2018-08-28T08:03:13.878Z,25.90
2018-08-28T08:05:42.027Z,25.70
2018-08-28T08:08:10.185Z,25.60
2018-08-28T08:10:38.581Z,25.30
2018-08-28T08:13:06.484Z,24.90
2018-08-28T08:15:34.668Z,24.70
2018-08-28T08:18:02.785Z,24.90
2018-08-28T08:20:30.937Z,25.20
2018-08-28T08:22:59.111Z,25.10
2018-08-28T08:25:27.271Z,24.80
2018-08-28T08:28:09.764Z,25.20
2018-08-28T08:30:37.747Z,25.50
2018-08-28T08:33:05.925Z,25.60
2018-08-28T08:35:34.087Z,25.40
2018-08-28T08:38:02.256Z,24.80
2018-08-28T08:40:30.418Z,24.40
2018-08-28T08:42:58.572Z,23.70
2018-08-28T08:45:26.996Z,23.00
2018-08-28T08:47:55.914Z,23.20
2018-08-28T08:50:24.038Z,23.70
2018-08-28T08:52:52.933Z,24.70
2018-08-28T08:55:21.333Z,25.50
2018-08-28T08:57:51.425Z,25.80
2018-08-28T09:00:19.565Z,25.90
2018-08-28T09:02:47.874Z,25.90
2018-08-28T09:05:16.006Z,26.30
2018-08-28T09:07:44.158Z,26.40
2018-08-28T09:10:12.578Z,26.40
2018-08-28T09:12:40.720Z,25.90
2018-08-28T09:15:08.891Z,26.00
2018-08-28T09:17:37.030Z,26.00
2018-08-28T09:20:05.569Z,26.50
2018-08-28T09:22:33.710Z,26.80
2018-08-28T09:25:01.862Z,26.70
2018-08-28T09:27:30.040Z,26.10
2018-08-28T09:29:58.207Z,25.50
2018-08-28T09:32:26.492Z,25.90
2018-08-28T09:34:54.576Z,25.60
2018-08-28T09:37:22.689Z,25.30
2018-08-28T09:39:50.834Z,24.60
2018-08-28T09:42:19.058Z,24.60
2018-08-28T09:44:47.285Z,25.00
2018-08-28T09:47:15.443Z,25.50
2018-08-28T09:49:43.619Z,26.60
2018-08-28T09:52:11.757Z,27.40
2018-08-28T09:54:39.936Z,27.70
2018-08-28T09:57:08.087Z,27.90
2018-08-28T09:59:36.237Z,28.70
2018-08-28T10:02:04.391Z,29.30
2018-08-28T10:04:32.538Z,29.20
2018-08-28T10:07:00.686Z,28.80
2018-08-28T10:09:28.839Z,29.50
2018-08-28T10:11:56.980Z,29.00
2018-08-28T10:14:25.138Z,29.30
2018-08-28T10:16:53.311Z,30.00
2018-08-28T10:19:21.562Z,30.50
2018-08-28T10:21:49.762Z,29.90
2018-08-28T10:24:18.463Z,29.20
2018-08-28T10:26:46.632Z,28.90
2018-08-28T10:29:14.849Z,28.70
2018-08-28T10:31:43.051Z,28.40
2018-08-28T10:34:11.237Z,29.00
2018-08-28T10:36:39.410Z,29.40
2018-08-28T10:39:08.890Z,29.70
2018-08-28T10:41:37.082Z,29.80
2018-08-28T10:44:05.278Z,30.10
2018-08-28T10:46:33.500Z,30.20
2018-08-28T10:49:01.949Z,29.60
2018-08-28T10:51:30.205Z,28.60
2018-08-28T10:53:58.363Z,28.30
2018-08-28T10:56:26.567Z,28.10
2018-08-28T10:58:54.839Z,28.10
2018-08-28T11:01:22.973Z,28.00
2018-08-28T11:03:51.162Z,28.40
2018-08-28T11:06:19.317Z,28.70
2018-08-28T11:08:47.538Z,28.30
2018-08-28T11:11:15.729Z,27.80
2018-08-28T11:13:43.932Z,27.90
2018-08-28T11:16:13.087Z,27.90
2018-08-28T11:18:41.424Z,27.90
2018-08-28T11:21:09.636Z,28.40
2018-08-28T11:23:37.812Z,28.50
2018-08-28T11:26:05.989Z,28.30
2018-08-28T11:28:34.182Z,28.50
2018-08-28T11:31:02.339Z,28.50
2018-08-28T11:33:30.534Z,27.90
2018-08-28T11:35:58.722Z,27.10
2018-08-28T11:38:26.971Z,27.50
2018-08-28T11:40:55.708Z,27.60
2018-08-28T11:43:23.882Z,27.50
2018-08-28T11:45:52.045Z,27.60
2018-08-28T11:48:20.434Z,27.20
2018-08-28T11:50:48.582Z,27.10
2018-08-28T11:53:16.891Z,27.40
2018-08-28T11:55:45.056Z,27.30
2018-08-28T11:58:13.218Z,27.00
2018-08-28T12:00:41.356Z,27.40
2018-08-28T12:03:09.959Z,28.00
2018-08-28T12:05:38.127Z,28.10
2018-08-28T12:08:06.334Z,28.10
2018-08-28T12:10:36.374Z,28.10
2018-08-28T12:13:04.647Z,28.40
2018-08-28T12:15:32.853Z,28.80
2018-08-28T12:18:02.133Z,28.60
2018-08-28T12:20:30.482Z,27.40
2018-08-28T12:22:59.230Z,26.90
2018-08-28T12:25:27.430Z,27.40
2018-08-28T12:27:55.594Z,27.80
2018-08-28T12:30:23.794Z,28.30
2018-08-28T12:32:51.966Z,28.40
2018-08-28T12:35:20.132Z,28.70
2018-08-28T12:37:48.319Z,28.90
2018-08-28T12:40:16.581Z,28.70
2018-08-28T12:42:45.131Z,28.30
2018-08-28T12:45:13.277Z,27.80
2018-08-28T12:47:41.533Z,27.60
2018-08-28T12:50:10.446Z,27.70
2018-08-28T12:52:42.179Z,27.80
2018-08-28T12:55:10.858Z,28.30
2018-08-28T12:57:39.036Z,28.60
2018-08-28T13:00:07.551Z,28.90
2018-08-28T13:02:35.773Z,28.90
2018-08-28T13:05:04.616Z,29.00
2018-08-28T13:07:32.969Z,28.60
2018-08-28T13:10:01.138Z,28.60
2018-08-28T13:12:29.266Z,28.70
2018-08-28T13:14:57.791Z,28.50
2018-08-28T13:17:26.250Z,28.80
2018-08-28T13:19:54.403Z,29.60
2018-08-28T13:22:22.986Z,30.10
2018-08-28T13:24:51.239Z,30.50
2018-08-28T13:27:19.368Z,30.60
2018-08-28T13:29:47.591Z,30.50
2018-08-28T13:32:15.739Z,29.80
2018-08-28T13:34:43.942Z,29.10
2018-08-28T13:37:12.209Z,28.80
2018-08-28T13:39:40.368Z,29.00
2018-08-28T13:42:08.552Z,29.60
2018-08-28T13:44:36.725Z,30.00
2018-08-28T13:47:05.446Z,30.40
2018-08-28T13:49:34.174Z,30.50
2018-08-28T13:52:02.346Z,30.10
2018-08-28T13:54:30.569Z,30.00
2018-08-28T13:56:58.830Z,30.30
2018-08-28T13:59:27.105Z,30.30
2018-08-28T14:01:55.231Z,30.80
2018-08-28T14:04:23.386Z,31.40
2018-08-28T14:06:51.604Z,32.10
2018-08-28T14:09:19.905Z,32.10
2018-08-28T14:11:48.180Z,31.60
2018-08-28T14:14:16.333Z,31.80
2018-08-28T14:16:44.731Z,32.70
2018-08-28T14:19:12.919Z,33.70
2018-08-28T14:21:41.094Z,32.80
2018-08-28T14:24:09.306Z,32.00
2018-08-28T14:26:37.514Z,32.00
2018-08-28T14:29:09.575Z,32.10
2018-08-28T14:31:37.722Z,32.30
2018-08-28T14:34:05.913Z,33.00
2018-08-28T14:36:34.138Z,33.90
2018-08-28T14:39:02.514Z,34.60
2018-08-28T14:41:31.037Z,35.10
2018-08-28T14:43:59.256Z,34.90
2018-08-28T14:46:27.419Z,34.80
2018-08-28T14:48:55.593Z,35.00
2018-08-28T14:51:23.778Z,34.30
2018-08-28T14:53:52.669Z,33.90
2018-08-28T14:56:22.632Z,33.90
2018-08-28T14:58:50.790Z,32.90
2018-08-28T15:01:18.982Z,32.40
2018-08-28T15:03:47.204Z,32.30
2018-08-28T15:06:15.381Z,32.50
2018-08-28T15:08:43.557Z,32.90
2018-08-28T15:11:12.468Z,32.80
2018-08-28T15:13:40.719Z,32.40
2018-08-28T15:16:10.246Z,32.40
2018-08-28T15:18:38.455Z,32.70
2018-08-28T15:21:06.708Z,33.30
2018-08-28T15:23:34.854Z,34.20
2018-08-28T15:26:03.002Z,34.40
2018-08-28T15:28:31.145Z,33.20
2018-08-28T15:30:59.332Z,32.10
2018-08-28T15:33:27.511Z,31.80
2018-08-28T15:35:55.683Z,30.80
2018-08-28T15:38:23.893Z,30.60
2018-08-28T15:40:52.022Z,30.80
2018-08-28T15:43:20.199Z,30.30
2018-08-28T15:45:48.371Z,30.70
2018-08-28T15:48:16.546Z,31.40
2018-08-28T15:50:44.718Z,32.20
2018-08-28T15:53:12.908Z,32.00
2018-08-28T15:55:41.183Z,31.70
2018-08-28T15:58:09.469Z,32.10
2018-08-28T16:00:37.637Z,32.70
2018-08-28T16:03:06.018Z,32.70
2018-08-28T16:05:34.562Z,32.90
2018-08-28T16:08:02.837Z,32.60
2018-08-28T16:10:31.060Z,31.80
2018-08-28T16:12:59.276Z,32.00
2018-08-28T16:15:27.449Z,32.30
2018-08-28T16:17:55.847Z,32.50
2018-08-28T16:20:24.913Z,32.70
2018-08-28T16:22:56.358Z,33.10
2018-08-28T16:25:24.622Z,33.00
2018-08-28T16:27:52.919Z,32.80
2018-08-28T16:30:21.060Z,32.80
2018-08-28T16:32:49.455Z,32.50
2018-08-28T16:35:17.643Z,32.10
2018-08-28T16:37:46.046Z,31.70
2018-08-28T16:40:14.227Z,31.30
2018-08-28T16:42:42.475Z,30.80
2018-08-28T16:45:10.618Z,30.30
2018-08-28T16:47:39.730Z,30.00
2018-08-28T16:50:08.060Z,29.80
2018-08-28T16:52:36.933Z,29.90
2018-08-28T16:55:23.127Z,29.90
2018-08-28T16:57:51.318Z,29.90
2018-08-28T17:00:19.481Z,29.60
2018-08-28T17:02:48.391Z,28.90
2018-08-28T17:05:16.526Z,28.00
2018-08-28T17:07:44.698Z,27.10
2018-08-28T17:10:12.894Z,26.40
2018-08-28T17:12:41.071Z,25.80
2018-08-28T17:15:09.359Z,25.30
2018-08-28T17:17:37.430Z,24.80
2018-08-28T17:20:05.677Z,24.40
2018-08-28T17:22:33.872Z,24.10
2018-08-28T17:25:02.054Z,23.90
2018-08-28T17:27:30.310Z,23.70
2018-08-28T17:29:58.523Z,23.50
2018-08-28T17:32:26.718Z,23.20
2018-08-28T17:34:54.926Z,23.00
2018-08-28T17:37:23.921Z,22.70
2018-08-28T17:39:52.001Z,22.50
2018-08-28T17:42:20.190Z,22.30
2018-08-28T17:44:48.444Z,22.10
2018-08-28T17:47:16.638Z,22.00
2018-08-28T17:49:44.845Z,21.80
2018-08-28T17:52:13.172Z,21.70
2018-08-28T17:54:41.339Z,21.50
2018-08-28T17:57:09.510Z,21.40
2018-08-28T17:59:37.702Z,21.20
2018-08-28T18:02:06.833Z,21.00
2018-08-28T18:04:35.345Z,20.80
2018-08-28T18:07:03.518Z,20.70
2018-08-28T18:09:33.726Z,20.50
2018-08-28T18:12:01.888Z,20.30
2018-08-28T18:14:30.079Z,20.10
2018-08-28T18:16:58.256Z,19.90
2018-08-28T18:19:26.486Z,19.70
2018-08-28T18:21:55.103Z,19.60
2018-08-28T18:24:23.434Z,19.50
2018-08-28T18:26:52.081Z,19.30
2018-08-28T18:29:20.242Z,19.20
2018-08-28T18:31:48.450Z,19.10
2018-08-28T18:34:16.622Z,19.00
2018-08-28T18:36:44.841Z,18.80
2018-08-28T18:39:13.623Z,18.70
2018-08-28T18:41:41.915Z,18.50
2018-08-28T18:44:10.103Z,18.30
2018-08-28T18:46:38.296Z,18.10
2018-08-28T18:49:06.479Z,17.90
2018-08-28T18:51:34.678Z,17.70
2018-08-28T18:54:02.861Z,17.60
2018-08-28T18:56:31.486Z,17.50
2018-08-28T18:58:59.693Z,17.50
2018-08-28T19:01:28.666Z,17.40
2018-08-28T19:04:04.553Z,17.40
2018-08-28T19:06:32.790Z,17.30
2018-08-28T19:09:01.002Z,17.20
2018-08-28T19:11:29.842Z,17.20
2018-08-28T19:13:58.018Z,17.10
2018-08-28T19:16:26.226Z,17.00
2018-08-28T19:18:54.402Z,16.90
2018-08-28T19:21:22.609Z,16.90
2018-08-28T19:23:51.796Z,16.80
2018-08-28T19:26:19.962Z,16.70
2018-08-28T19:28:48.335Z,16.70
2018-08-28T19:31:23.362Z,16.50
2018-08-28T19:33:51.695Z,16.50
2018-08-28T19:36:19.877Z,16.40
2018-08-28T19:38:48.092Z,16.40
2018-08-28T19:41:16.282Z,16.30
2018-08-28T19:43:44.914Z,16.10
2018-08-28T19:46:13.168Z,16.00
2018-08-28T19:48:42.050Z,15.80
2018-08-28T19:51:10.197Z,15.60
2018-08-28T19:53:38.441Z,15.40
2018-08-28T19:56:06.633Z,15.20
2018-08-28T19:58:35.222Z,15.10
2018-08-28T20:01:05.469Z,15.00
2018-08-28T20:03:33.665Z,14.90
2018-08-28T20:06:02.657Z,14.80
2018-08-28T20:08:30.845Z,14.80
2018-08-28T20:11:00.074Z,14.70
2018-08-28T20:13:28.267Z,14.70
2018-08-28T20:15:56.512Z,14.70
2018-08-28T20:18:25.734Z,14.70
2018-08-28T20:20:54.023Z,14.70
2018-08-28T20:23:22.105Z,14.60
2018-08-28T20:25:50.330Z,14.70
2018-08-28T20:28:18.488Z,14.70
2018-08-28T20:30:46.689Z,14.60
2018-08-28T20:33:14.869Z,14.60
2018-08-28T20:35:43.080Z,14.60
2018-08-28T20:38:11.474Z,14.60
2018-08-28T20:40:39.653Z,14.60
2018-08-28T20:43:08.193Z,14.50
2018-08-28T20:45:36.371Z,14.40
2018-08-28T20:48:04.578Z,14.40
2018-08-28T20:50:32.838Z,14.30
2018-08-28T20:53:01.093Z,14.40
2018-08-28T20:55:29.267Z,14.40
2018-08-28T20:57:57.487Z,14.40
2018-08-28T21:00:26.674Z,14.30
2018-08-28T21:02:54.898Z,14.20
2018-08-28T21:05:31.394Z,14.00
2018-08-28T21:08:00.707Z,13.80
2018-08-28T21:10:29.507Z,13.60
2018-08-28T21:12:57.764Z,13.40
2018-08-28T21:15:25.879Z,13.20
2018-08-28T21:17:54.415Z,13.00
2018-08-28T21:20:22.651Z,12.80
2018-08-28T21:22:51.080Z,12.70
2018-08-28T21:25:19.282Z,12.60
2018-08-28T21:27:47.454Z,12.50
2018-08-28T21:30:15.609Z,12.40
2018-08-28T21:32:43.840Z,12.30
2018-08-28T21:35:12.114Z,12.20
2018-08-28T21:37:40.324Z,12.30
2018-08-28T21:40:08.546Z,12.30
2018-08-28T21:42:36.718Z,12.30
2018-08-28T21:45:04.942Z,12.30
2018-08-28T21:47:33.113Z,12.40
2018-08-28T21:50:01.333Z,12.50
2018-08-28T21:52:29.485Z,12.60
2018-08-28T21:55:00.659Z,12.60
2018-08-28T21:57:28.831Z,12.90
2018-08-28T21:59:57.008Z,13.10
2018-08-28T22:02:25.210Z,13.20
2018-08-28T22:04:53.372Z,13.30
2018-08-28T22:07:27.088Z,13.30
2018-08-28T22:09:56.055Z,13.30
2018-08-28T22:12:24.259Z,13.40
2018-08-28T22:14:52.431Z,13.40
2018-08-28T22:17:21.365Z,13.50
2018-08-28T22:19:49.723Z,13.50
2018-08-28T22:22:17.930Z,13.60
2018-08-28T22:24:46.103Z,13.60
2018-08-28T22:27:14.246Z,13.70
2018-08-28T22:29:42.614Z,13.80
2018-08-28T22:32:10.978Z,13.70
2018-08-28T22:34:39.409Z,13.70
2018-08-28T22:37:07.596Z,13.60
2018-08-28T22:39:35.882Z,13.60
2018-08-28T22:42:04.226Z,13.50
2018-08-28T22:44:32.506Z,13.50
2018-08-28T22:47:00.694Z,13.50
2018-08-28T22:49:28.898Z,13.50
2018-08-28T22:51:57.569Z,13.50
2018-08-28T22:54:25.802Z,13.40
2018-08-28T22:56:54.011Z,13.40
2018-08-28T22:59:22.222Z,13.30
2018-08-28T23:01:50.421Z,13.30
2018-08-28T23:04:18.606Z,13.30
2018-08-28T23:06:46.833Z,13.30
2018-08-28T23:09:15.066Z,13.40
2018-08-28T23:11:43.997Z,13.40
2018-08-28T23:14:12.182Z,13.40
2018-08-28T23:16:40.366Z,13.40
2018-08-28T23:19:08.566Z,13.40
2018-08-28T23:21:36.764Z,13.40
2018-08-28T23:24:05.154Z,13.40
2018-08-28T23:26:33.357Z,13.40
2018-08-28T23:29:01.525Z,13.30
2018-08-28T23:31:30.115Z,13.30
2018-08-28T23:33:58.230Z,13.20
2018-08-28T23:36:26.391Z,13.20
2018-08-28T23:38:54.597Z,13.10
2018-08-28T23:41:22.821Z,13.00
2018-08-28T23:43:51.014Z,13.00
2018-08-28T23:46:19.213Z,12.90
2018-08-28T23:48:47.451Z,12.90
2018-08-28T23:51:15.721Z,12.90
2018-08-28T23:53:44.292Z,12.80
2018-08-28T23:56:14.869Z,12.80
2018-08-28T23:58:43.726Z,12.70
